Time;durP1;ratioP1;P1;durP2;ratioP2;P2;SDS_P1;SDS_P2;PMS_P1;PMS_P2;Temp;Humidity;BMP_temperature;BMP_pressure;BME280_temperature;BME280_humidity;BME280_pressure;Samples;Min_cycle;Max_cycle;Signal;HPM_P1;HPM_P2
2021/01/28 00:00:31;;;;;;;4.95;4.18;;;;;;;12.46;77.60;99495.31;5015289;28;20053;-80
2021/01/28 00:02:58;;;;;;;4.68;4.15;;;;;;;12.48;77.38;99515.28;5015182;28;20025;-80
2021/01/28 00:05:27;;;;;;;5.93;4.85;;;;;;;12.42;77.00;99518.47;5013836;28;20145;-80
2021/01/28 00:07:52;;;;;;;6.60;5.07;;;;;;;12.45;77.77;99509.44;5015213;28;20068;-80
2021/01/28 00:10:18;;;;;;;4.25;3.78;;;;;;;12.46;78.33;99521.63;4996052;28;20038;-80
2021/01/28 00:12:44;;;;;;;4.75;4.25;;;;;;;12.55;77.63;99526.06;4995527;28;20034;-80
2021/01/28 00:15:10;;;;;;;4.72;4.22;;;;;;;12.47;78.10;99529.41;4995468;28;20022;-80
2021/01/28 00:17:36;;;;;;;5.43;4.88;;;;;;;12.54;77.46;99519.16;5005049;28;20432;-80
2021/01/28 00:20:08;;;;;;;5.13;4.15;;;;;;;12.52;77.61;99507.09;5014858;28;20038;-80
2021/01/28 00:22:33;;;;;;;5.70;5.07;;;;;;;12.34;78.32;99509.56;5014919;28;20034;-80
2021/01/28 00:24:59;;;;;;;5.25;4.60;;;;;;;12.52;77.38;99513.22;5014698;28;20026;-80
2021/01/28 00:27:24;;;;;;;6.70;4.95;;;;;;;12.54;77.89;99511.25;5014742;28;20029;-80
2021/01/28 00:29:49;;;;;;;6.75;3.92;;;;;;;12.60;77.74;99502.81;5013540;28;20030;-80
2021/01/28 00:32:15;;;;;;;4.97;4.00;;;;;;;12.62;77.64;99492.13;5005575;28;20033;-80
2021/01/28 00:34:40;;;;;;;5.57;4.63;;;;;;;12.62;77.95;99492.13;4995279;28;20026;-80
2021/01/28 00:37:05;;;;;;;5.68;4.55;;;;;;;12.69;77.11;99480.88;4995118;28;20085;-80
2021/01/28 00:39:31;;;;;;;5.78;4.93;;;;;;;12.86;76.75;99475.88;4995026;28;20381;-80
2021/01/28 00:41:56;;;;;;;5.75;4.82;;;;;;;12.87;76.85;99474.91;4995001;28;20073;-80
2021/01/28 00:44:21;;;;;;;5.30;4.80;;;;;;;12.59;77.76;99461.63;4995041;28;20084;-80
2021/01/28 00:46:48;;;;;;;7.20;5.03;;;;;;;12.78;77.76;99458.16;5000174;28;20026;-80
2021/01/28 00:49:13;;;;;;;6.82;5.18;;;;;;;12.99;76.24;99443.94;5013154;28;20034;-80
2021/01/28 00:51:38;;;;;;;6.38;5.07;;;;;;;12.85;77.28;99438.16;5014457;28;20109;-80
2021/01/28 00:54:04;;;;;;;5.43;4.70;;;;;;;12.96;76.85;99421.34;5014184;28;20053;-80
2021/01/28 00:56:29;;;;;;;6.45;4.90;;;;;;;12.91;76.59;99415.66;5014234;28;20026;-80
2021/01/28 00:58:55;;;;;;;5.28;4.78;;;;;;;12.98;77.06;99408.88;5014288;28;20034;-80
2021/01/28 01:01:20;;;;;;;6.63;5.45;;;;;;;12.64;77.52;99401.47;5014108;28;20018;-80
2021/01/28 01:03:45;;;;;;;5.90;4.43;;;;;;;12.80;78.10;99394.78;5002555;28;20060;-80
2021/01/28 01:06:11;;;;;;;5.35;4.35;;;;;;;12.78;77.16;99394.09;4994407;28;20430;-80
2021/01/28 01:08:37;;;;;;;4.65;4.22;;;;;;;12.70;77.87;99384.28;4994465;28;20042;-80
2021/01/28 01:11:11;;;;;;;4.85;3.88;;;;;;;12.77;77.42;99368.72;4994477;28;20034;-80
2021/01/28 01:13:38;;;;;;;5.53;4.57;;;;;;;12.58;78.47;99351.16;4994466;28;20030;-80
2021/01/28 01:16:06;;;;;;;4.95;4.38;;;;;;;12.68;78.02;99362.53;4994804;28;20551;-80
2021/01/28 01:18:33;;;;;;;4.53;3.92;;;;;;;12.78;78.23;99357.22;5013710;28;20026;-80
2021/01/28 01:21:00;;;;;;;5.00;4.50;;;;;;;12.64;78.31;99348.81;5013851;28;20017;-80
2021/01/28 01:23:25;;;;;;;5.90;5.07;;;;;;;12.56;78.24;99364.50;5013670;28;20156;-81
2021/01/28 01:25:51;;;;;;;8.25;4.65;;;;;;;12.66;78.62;99360.03;5013508;28;20112;-80
2021/01/28 01:28:17;;;;;;;5.78;5.18;;;;;;;12.62;78.02;99350.75;5013714;28;20030;-80
2021/01/28 01:30:43;;;;;;;5.35;4.40;;;;;;;12.67;78.71;99347.69;5013431;28;20109;-80
2021/01/28 01:33:09;;;;;;;6.05;4.47;;;;;;;12.67;78.63;99340.59;5013774;28;20030;-80
2021/01/28 01:35:35;;;;;;;4.65;4.10;;;;;;;12.63;78.69;99327.88;5012364;28;20026;-81
2021/01/28 01:38:01;;;;;;;4.90;4.03;;;;;;;12.54;78.26;99299.75;5013491;28;20022;-80
2021/01/28 01:40:33;;;;;;;4.20;3.80;;;;;;;12.63;78.55;99307.63;5013485;28;20026;-80
2021/01/28 01:43:00;;;;;;;4.00;3.50;;;;;;;12.58;78.68;99299.34;5012317;28;20072;-80
2021/01/28 01:45:32;;;;;;;4.60;3.88;;;;;;;12.57;78.93;99302.94;5013993;28;20029;-80
2021/01/28 01:48:15;;;;;;;3.97;3.58;;;;;;;12.57;78.73;99294.22;4993658;28;20157;-80
2021/01/28 01:50:50;;;;;;;3.92;2.88;;;;;;;12.65;78.75;99283.78;4993726;28;20062;-80
2021/01/28 01:53:21;;;;;;;3.88;3.47;;;;;;;12.68;78.88;99276.44;4993665;28;20069;-80
2021/01/28 01:55:53;;;;;;;8.82;3.45;;;;;;;12.69;78.60;99259.66;5007495;28;20049;-80
2021/01/28 01:58:28;;;;;;;3.45;3.08;;;;;;;12.66;78.65;99252.06;5013239;28;20038;-80
2021/01/28 02:00:54;;;;;;;4.47;3.05;;;;;;;12.60;78.33;99239.47;5013384;28;20034;-80
2021/01/28 02:03:21;;;;;;;3.17;2.60;;;;;;;12.82;77.85;99243.50;5013285;28;20034;-80
2021/01/28 02:05:53;;;;;;;2.70;2.38;;;;;;;12.83;78.12;99239.06;5013174;28;20030;-80
2021/01/28 02:08:19;;;;;;;2.63;2.00;;;;;;;12.79;77.80;99227.16;5013227;28;20026;-80
2021/01/28 02:10:45;;;;;;;2.42;2.22;;;;;;;12.75;78.06;99224.00;4995977;28;20037;-80
2021/01/28 02:13:10;;;;;;;3.00;2.20;;;;;;;12.81;78.26;99233.13;4993608;28;20038;-80
2021/01/28 02:15:35;;;;;;;2.60;2.03;;;;;;;12.89;77.67;99230.56;4993298;28;20030;-80
2021/01/28 02:18:01;;;;;;;2.40;2.00;;;;;;;12.97;77.50;99233.28;4993323;28;20612;-80
2021/01/28 02:20:33;;;;;;;2.00;1.80;;;;;;;13.04;77.03;99236.19;4993241;28;20384;-80
2021/01/28 02:23:10;;;;;;;2.78;1.90;;;;;;;13.05;76.45;99246.59;4993169;28;20026;-80
2021/01/28 02:25:38;;;;;;;2.10;1.90;;;;;;;12.79;77.35;99248.25;5010318;28;20250;-80
2021/01/28 02:28:10;;;;;;;2.15;1.95;;;;;;;12.91;77.65;99241.78;5012756;28;20052;-80
2021/01/28 02:30:37;;;;;;;2.78;2.05;;;;;;;12.87;77.64;99245.69;5012490;28;20041;-80
2021/01/28 02:33:09;;;;;;;2.75;2.13;;;;;;;12.95;77.16;99253.69;5012465;28;20033;-80
2021/01/28 02:35:35;;;;;;;2.25;2.05;;;;;;;12.98;77.69;99253.41;4992573;28;20034;-80
2021/01/28 02:38:05;;;;;;;2.92;1.92;;;;;;;12.79;77.98;99253.50;4991849;28;20022;-79
2021/01/28 02:40:32;;;;;;;3.63;2.53;;;;;;;12.80;78.18;99249.91;4992906;28;20392;-80
2021/01/28 02:42:58;;;;;;;2.65;2.33;;;;;;;12.88;77.36;99231.56;4992903;28;20102;-80
2021/01/28 02:45:31;;;;;;;3.53;2.20;;;;;;;12.90;77.36;99203.25;4993168;28;20103;-80
2021/01/28 02:48:06;;;;;;;2.40;2.20;;;;;;;12.80;78.39;99203.31;4993001;28;20104;-80
2021/01/28 02:50:31;;;;;;;3.10;2.60;;;;;;;12.88;77.95;99184.16;5010778;28;20045;-80
2021/01/28 02:53:00;;;;;;;3.58;2.28;;;;;;;13.00;77.34;99188.22;5011634;28;20029;-80
2021/01/28 02:55:27;;;;;;;4.85;2.33;;;;;;;13.00;77.92;99182.94;5012459;28;20014;-80
2021/01/28 02:57:53;;;;;;;4.57;2.78;;;;;;;12.89;77.90;99193.69;4999284;28;20027;-80
2021/01/28 03:00:25;;;;;;;2.40;2.20;;;;;;;12.84;77.74;99188.06;4992614;28;20034;-80
2021/01/28 03:02:51;;;;;;;;;;;;;;;12.89;78.42;99191.06;4992675;28;20026;-80
2021/01/28 03:05:17;;;;;;;2.47;2.08;;;;;;;12.59;78.97;99171.97;4992629;28;20300;-81
2021/01/28 03:07:43;;;;;;;2.28;1.85;;;;;;;12.97;78.34;99188.50;4992599;28;20033;-80
2021/01/28 03:10:09;;;;;;;2.22;1.90;;;;;;;13.02;77.62;99174.91;4992423;28;20034;-81
2021/01/28 03:12:34;;;;;;;2.25;2.00;;;;;;;12.97;77.30;99172.69;5004037;28;20022;-80
2021/01/28 03:14:59;;;;;;;1.50;1.30;;;;;;;12.87;77.94;99162.25;5012011;28;20033;-80
2021/01/28 03:17:25;;;;;;;1.90;1.63;;;;;;;12.96;77.84;99168.41;5012158;28;20032;-80
2021/01/28 03:19:50;;;;;;;2.05;1.60;;;;;;;13.09;77.83;99166.25;5012318;28;20059;-80
2021/01/28 03:22:16;;;;;;;2.00;1.58;;;;;;;13.17;77.55;99162.84;5012331;28;20061;-80
2021/01/28 03:24:41;;;;;;;2.55;1.75;;;;;;;12.75;78.71;99146.78;5012213;28;20081;-80
2021/01/28 03:27:06;;;;;;;1.98;1.50;;;;;;;12.36;80.30;99145.25;5001318;28;20081;-80
2021/01/28 03:29:32;;;;;;;3.00;1.67;;;;;;;12.69;79.43;99141.13;4992229;28;20424;-80
2021/01/28 03:31:57;;;;;;;3.75;1.23;;;;;;;13.00;78.31;99147.88;4992680;28;20023;-80
2021/01/28 03:34:22;;;;;;;1.85;1.00;;;;;;;12.97;78.27;99133.16;4992457;28;20072;-80
2021/01/28 03:36:48;;;;;;;1.13;0.90;;;;;;;13.06;77.25;99129.63;4992432;28;20050;-80
2021/01/28 03:39:13;;;;;;;1.15;0.90;;;;;;;13.12;77.96;99141.38;4992254;28;20034;-80
2021/01/28 03:41:39;;;;;;;1.00;0.70;;;;;;;13.05;78.25;99132.41;4993337;28;20465;-80
2021/01/28 03:44:04;;;;;;;0.75;0.50;;;;;;;12.64;79.13;99129.41;4992244;28;20037;-80
2021/01/28 03:46:29;;;;;;;0.52;0.40;;;;;;;12.66;79.06;99123.00;4993762;28;20045;-80
2021/01/28 03:48:55;;;;;;;0.32;0.32;;;;;;;12.91;79.02;99131.13;4992137;28;20035;-80
2021/01/28 03:51:20;;;;;;;0.20;0.20;;;;;;;12.93;78.70;99129.19;4992456;28;20030;-80
2021/01/28 03:53:45;;;;;;;0.32;0.32;;;;;;;12.87;79.23;99128.00;4992229;28;20119;-80
2021/01/28 03:56:11;;;;;;;2.60;0.32;;;;;;;12.65;79.94;99115.25;4992274;28;20366;-79
2021/01/28 03:58:36;;;;;;;0.20;0.20;;;;;;;12.92;78.99;99127.53;4990997;28;20054;-79
2021/01/28 04:01:03;;;;;;;0.32;0.20;;;;;;;12.85;79.43;99121.22;4992318;28;20389;-80
2021/01/28 04:03:28;;;;;;;0.20;0.20;;;;;;;12.82;79.51;99116.25;5009952;28;20030;-80
2021/01/28 04:05:53;;;;;;;0.25;0.20;;;;;;;13.15;78.45;99130.56;5015642;28;20025;-80
2021/01/28 04:08:19;;;;;;;0.20;0.17;;;;;;;13.17;78.68;99127.75;5015594;28;20187;-81
2021/01/28 04:10:44;;;;;;;0.30;0.10;;;;;;;12.78;80.05;99121.00;5010608;28;20439;-81
2021/01/28 04:13:09;;;;;;;0.20;0.10;;;;;;;13.00;79.47;99127.63;5015382;28;20062;-79
2021/01/28 04:15:35;;;;;;;0.55;0.20;;;;;;;12.78;79.84;99122.81;5015271;28;20084;-80
2021/01/28 04:18:02;;;;;;;3.60;0.70;;;;;;;12.81;79.81;99119.84;5015083;28;20065;-80
2021/01/28 04:20:32;;;;;;;1.80;0.50;;;;;;;12.83;80.40;99125.81;5015157;28;20517;-79
2021/01/28 04:22:59;;;;;;;3.67;0.60;;;;;;;12.91;80.28;99136.41;5015169;28;20420;-78
2021/01/28 04:25:25;;;;;;;3.20;0.70;;;;;;;12.96;80.20;99121.00;5010795;28;20035;-80
2021/01/28 04:27:51;;;;;;;10.45;1.90;;;;;;;12.92;80.56;99124.91;4995118;28;20392;-80
2021/01/28 04:30:29;;;;;;;3.95;1.20;;;;;;;13.05;80.39;99125.38;4995301;28;20485;-79
2021/01/28 04:32:55;;;;;;;7.30;1.17;;;;;;;12.82;81.33;99117.06;4995706;28;20401;-79
2021/01/28 04:35:21;;;;;;;5.68;1.50;;;;;;;13.11;80.06;99116.00;4995352;28;20034;-79
2021/01/28 04:37:46;;;;;;;2.83;1.00;;;;;;;12.80;81.55;99107.69;4995381;28;20026;-79
2021/01/28 04:40:23;;;;;;;4.55;1.33;;;;;;;13.05;81.00;99112.19;4999311;28;20362;-79
2021/01/28 04:42:48;;;;;;;5.38;1.00;;;;;;;13.07;80.87;99109.38;5014687;28;20030;-79
2021/01/28 04:45:20;;;;;;;5.45;1.52;;;;;;;13.18;80.39;99095.16;5015281;28;20494;-80
2021/01/28 04:47:54;;;;;;;6.63;1.00;;;;;;;13.18;80.50;99105.69;5014595;28;20038;-80
2021/01/28 04:50:33;;;;;;;5.53;1.67;;;;;;;12.89;81.20;99107.59;5014518;28;20510;-79
2021/01/28 04:53:04;;;;;;;3.90;0.98;;;;;;;12.87;81.69;99098.19;5014638;28;20104;-80
2021/01/28 04:55:41;;;;;;;6.45;1.13;;;;;;;12.64;82.30;99090.72;5014071;28;20026;-79
2021/01/28 04:58:07;;;;;;;12.80;2.00;;;;;;;12.64;82.44;99100.44;5014247;28;20488;-79
2021/01/28 05:00:33;;;;;;;10.18;1.30;;;;;;;12.86;81.55;99093.91;5010947;28;20097;-79
2021/01/28 05:03:06;;;;;;;7.95;1.10;;;;;;;12.92;81.36;99095.94;4994853;28;20026;-79
2021/01/28 05:05:31;;;;;;;11.63;2.10;;;;;;;12.68;82.22;99089.47;4994514;28;20025;-79
2021/01/28 05:07:57;;;;;;;8.20;1.50;;;;;;;13.00;81.22;99092.53;4994680;28;20401;-80
2021/01/28 05:10:25;;;;;;;6.35;1.27;;;;;;;12.87;81.72;99095.53;5009988;28;20168;-80
2021/01/28 05:12:59;;;;;;;5.20;1.05;;;;;;;13.30;79.83;99093.94;4994495;28;20493;-80
2021/01/28 05:15:30;;;;;;;7.38;1.23;;;;;;;13.31;79.89;99100.03;4993998;28;20030;-79
2021/01/28 05:18:26;;;;;;;7.25;0.90;;;;;;;12.85;81.69;99089.59;4994860;28;20068;-79
2021/01/28 05:20:52;;;;;;;3.60;1.00;;;;;;;12.72;82.48;99094.41;4994420;28;20393;-79
2021/01/28 05:23:30;;;;;;;5.57;0.95;;;;;;;12.53;82.71;99085.69;4994483;28;20022;-79
2021/01/28 05:25:57;;;;;;;6.18;1.00;;;;;;;12.78;81.86;99078.84;4994431;28;20030;-80
2021/01/28 05:28:28;;;;;;;7.05;1.33;;;;;;;12.87;81.36;99090.28;4994413;28;20033;-80
2021/01/28 05:30:53;;;;;;;4.55;0.82;;;;;;;12.73;82.06;99081.09;4994409;28;20044;-80
2021/01/28 05:33:28;;;;;;;5.22;1.40;;;;;;;12.99;81.15;99101.41;4994312;28;20485;-80
2021/01/28 05:36:09;;;;;;;3.80;0.85;;;;;;;12.81;81.84;99099.59;4994072;28;20030;-80
2021/01/28 05:38:39;;;;;;;4.72;1.25;;;;;;;12.79;82.01;99087.56;5008786;28;20112;-80
2021/01/28 05:41:05;;;;;;;8.85;1.95;;;;;;;12.91;81.56;99110.06;5013536;28;20034;-80
2021/01/28 05:43:41;;;;;;;9.43;1.48;;;;;;;12.73;82.21;99085.53;5013689;28;20038;-80
2021/01/28 05:46:32;;;;;;;11.70;2.38;;;;;;;12.62;82.62;99055.00;5012876;28;20048;-80
2021/01/28 05:49:03;;;;;;;15.85;2.35;;;;;;;12.95;81.30;99079.81;5012288;28;20053;-80
2021/01/28 05:51:36;;;;;;;12.40;2.47;;;;;;;12.76;81.59;99086.06;5013415;28;20037;-79
2021/01/28 05:54:06;;;;;;;16.05;2.40;;;;;;;12.83;82.04;99091.56;4996019;28;20030;-79
2021/01/28 05:56:35;;;;;;;12.52;1.83;;;;;;;12.97;81.27;99101.56;4993500;28;20027;-80
2021/01/28 05:59:13;;;;;;;11.35;2.05;;;;;;;13.04;80.47;99084.16;4993631;28;20110;-80
2021/01/28 06:02:16;;;;;;;15.13;2.58;;;;;;;13.14;80.89;99078.00;4993756;28;20026;-79
2021/01/28 06:05:07;;;;;;;11.27;2.10;;;;;;;12.75;81.58;99088.84;4993686;28;20125;-79
2021/01/28 06:08:08;;;;;;;13.13;2.33;;;;;;;12.98;80.81;99094.50;4988196;28;20041;-79
2021/01/28 06:10:48;;;;;;;18.05;3.45;;;;;;;12.79;81.68;99106.00;5013086;28;20091;-79
2021/01/28 06:13:55;;;;;;;22.83;2.75;;;;;;;13.05;80.52;99090.25;5013207;28;20022;-79
2021/01/28 06:16:28;;;;;;;12.60;2.15;;;;;;;12.80;81.19;99070.81;5001934;28;20487;-79
2021/01/28 06:19:25;;;;;;;11.38;1.90;;;;;;;13.05;80.91;99070.03;5013120;28;20380;-80
2021/01/28 06:21:58;;;;;;;10.68;1.73;;;;;;;12.80;81.75;99078.72;5010836;28;20097;-79
2021/01/28 06:24:48;;;;;;;11.43;1.92;;;;;;;13.01;80.24;99076.59;5012741;28;20021;-79
2021/01/28 06:27:38;;;;;;;10.98;2.35;;;;;;;13.07;80.13;99085.66;5011853;28;20033;-79
2021/01/28 06:30:27;;;;;;;13.05;2.90;;;;;;;13.06;79.87;99099.84;5012744;28;20075;-79
2021/01/28 06:33:13;;;;;;;22.63;3.15;;;;;;;12.68;81.63;99083.38;5012636;28;20068;-79
2021/01/28 06:35:57;;;;;;;17.30;3.17;;;;;;;12.68;80.98;99089.47;4993635;28;20070;-79
2021/01/28 06:38:31;;;;;;;21.17;3.75;;;;;;;12.67;81.18;99087.78;4992933;28;20031;-80
2021/01/28 06:41:02;;;;;;;34.42;4.13;;;;;;;13.03;79.36;99098.34;4992873;28;20476;-80
2021/01/28 06:43:59;;;;;;;24.88;4.65;;;;;;;12.80;79.79;99097.97;4993072;28;20137;-80
2021/01/28 06:46:35;;;;;;;35.28;4.68;;;;;;;12.75;80.23;99088.84;4993360;28;20511;-80
2021/01/28 06:49:15;;;;;;;31.95;6.38;;;;;;;12.60;80.01;99089.38;4993751;28;20030;-80
2021/01/28 06:51:50;;;;;;;27.95;4.60;;;;;;;12.69;79.62;99083.19;4993046;28;20080;-79
2021/01/28 06:54:34;;;;;;;32.83;4.65;;;;;;;12.88;79.47;99094.56;4992790;28;20018;-79
2021/01/28 06:57:09;;;;;;;33.95;4.93;;;;;;;12.62;79.53;99110.31;4992891;28;20041;-79
2021/01/28 06:59:56;;;;;;;31.92;4.70;;;;;;;12.36;80.43;99108.38;4992366;28;20389;-79
2021/01/28 07:02:41;;;;;;;44.80;6.43;;;;;;;12.44;80.32;99112.88;4992736;28;20026;-80
2021/01/28 07:05:51;;;;;;;35.28;5.25;;;;;;;12.58;79.60;99093.97;5004966;28;20050;-79
2021/01/28 07:08:17;;;;;;;31.48;6.38;;;;;;;12.56;79.70;99117.00;5012045;28;20029;-79
2021/01/28 07:10:42;;;;;;;45.05;6.78;;;;;;;12.69;79.46;99101.63;5011722;28;20037;-80
2021/01/28 07:13:12;;;;;;;40.70;6.32;;;;;;;12.41;80.40;99098.22;5011938;28;20113;-79
2021/01/28 07:15:38;;;;;;;39.65;6.32;;;;;;;12.55;80.01;99109.22;5011909;28;20388;-80
2021/01/28 07:18:09;;;;;;;35.42;5.30;;;;;;;12.69;78.94;99106.91;4994450;28;20030;-79
2021/01/28 07:21:05;;;;;;;31.42;6.15;;;;;;;12.68;78.56;99107.88;4993631;28;20027;-86
2021/01/28 07:23:32;;;;;;;44.00;7.88;;;;;;;12.38;79.39;99110.84;4992520;28;20026;-79
2021/01/28 07:26:18;;;;;;;38.60;6.20;;;;;;;12.33;79.93;99110.47;5001922;28;20045;-81
2021/01/28 07:28:46;;;;;;;43.17;6.65;;;;;;;12.56;78.62;99129.31;5011723;28;20065;-80
2021/01/28 07:31:40;;;;;;;34.72;5.45;;;;;;;12.49;79.21;99121.19;5011731;28;20058;-80
2021/01/28 07:34:09;;;;;;;47.55;6.88;;;;;;;12.64;78.95;99135.50;5011771;28;20033;-79
2021/01/28 07:36:40;;;;;;;47.92;7.32;;;;;;;12.55;78.97;99132.94;5011660;28;20030;-80
2021/01/28 07:39:29;;;;;;;42.05;6.53;;;;;;;12.56;79.43;99147.72;5014907;28;20034;-81
2021/01/28 07:42:23;;;;;;;35.22;5.95;;;;;;;12.57;79.57;99152.03;4995074;28;20031;-81
2021/01/28 07:44:52;;;;;;;40.80;6.15;;;;;;;12.24;80.31;99165.66;5000862;28;20038;-80
2021/01/28 07:47:30;;;;;;;39.92;5.82;;;;;;;12.36;79.77;99173.34;5014724;28;20030;-81
2021/01/28 07:50:14;;;;;;;40.72;7.10;;;;;;;12.32;79.44;99177.25;5013979;28;20026;-81
2021/01/28 07:52:40;;;;;;;35.05;5.75;;;;;;;12.38;79.50;99166.13;5015531;28;20029;-80
2021/01/28 07:55:40;;;;;;;38.80;5.80;;;;;;;12.56;79.08;99180.19;5008603;28;20041;-81
2021/01/28 07:58:36;;;;;;;40.45;7.45;;;;;;;12.84;77.82;99185.44;5010995;28;20117;-80
2021/01/28 08:01:12;;;;;;;41.35;6.03;;;;;;;12.34;79.07;99197.16;4995690;28;20061;-80
2021/01/28 08:04:02;;;;;;;44.13;6.90;;;;;;;12.47;78.58;99186.31;4995776;28;20029;-81
2021/01/28 08:06:30;;;;;;;43.30;6.72;;;;;;;12.39;78.51;99188.84;5011437;28;20034;-80
2021/01/28 08:09:16;;;;;;;48.88;9.32;;;;;;;12.27;78.57;99194.31;5014732;28;20026;-80
2021/01/28 08:11:50;;;;;;;53.78;9.82;;;;;;;12.52;77.98;99189.34;5014038;28;20115;-80
2021/01/28 08:14:19;;;;;;;41.53;6.65;;;;;;;12.43;77.80;99201.56;5014860;28;20021;-79
2021/01/28 08:16:50;;;;;;;45.83;7.35;;;;;;;12.61;77.35;99198.97;5013886;28;20029;-79
2021/01/28 08:19:20;;;;;;;42.17;6.35;;;;;;;12.58;77.60;99220.34;5014816;28;20022;-80
2021/01/28 08:21:46;;;;;;;41.80;7.82;;;;;;;12.41;77.80;99221.13;5014939;28;20053;-80
2021/01/28 08:24:20;;;;;;;45.65;6.82;;;;;;;12.40;77.78;99222.09;5014432;28;20475;-80
2021/01/28 08:26:45;;;;;;;41.65;7.80;;;;;;;12.49;77.40;99229.94;5013700;28;20056;-80
2021/01/28 08:29:19;;;;;;;46.85;5.72;;;;;;;12.79;76.32;99235.91;5014546;28;20029;-80
2021/01/28 08:31:50;;;;;;;49.72;8.68;;;;;;;12.33;78.38;99232.38;5014705;28;20477;-80
2021/01/28 08:34:20;;;;;;;48.57;7.07;;;;;;;12.47;77.74;99241.59;5014449;28;20037;-80
2021/01/28 08:36:54;;;;;;;47.00;7.78;;;;;;;12.92;76.41;99246.09;5014042;28;20672;-81
2021/01/28 08:39:23;;;;;;;41.22;6.55;;;;;;;13.46;74.00;99244.34;5006576;28;20034;-81
2021/01/28 08:42:08;;;;;;;59.35;9.07;;;;;;;13.59;73.79;99245.78;4993711;28;20052;-80
2021/01/28 08:44:34;;;;;;;53.05;8.88;;;;;;;12.76;76.54;99248.56;4994549;28;20022;-79
2021/01/28 08:47:08;;;;;;;52.03;7.90;;;;;;;12.57;77.52;99250.28;5010487;28;20025;-80
2021/01/28 08:49:33;;;;;;;55.75;8.13;;;;;;;12.70;77.33;99244.69;5012318;28;20030;-79
2021/01/28 08:52:04;;;;;;;51.70;8.48;;;;;;;12.17;78.69;99238.25;5013207;28;20545;-86
2021/01/28 08:54:32;;;;;;;57.22;7.43;;;;;;;13.16;75.30;99245.53;5011094;28;20739;-84
2021/01/28 08:57:00;;;;;;;50.92;9.48;;;;;;;13.24;74.86;99245.59;5012398;28;20037;-86
2021/01/28 08:59:31;;;;;;;51.63;8.68;;;;;;;13.67;73.08;99248.50;5004889;28;20038;-81
2021/01/28 09:01:57;;;;;;;45.55;7.53;;;;;;;12.99;75.18;99248.97;5014064;28;20026;-81
2021/01/28 09:04:37;;;;;;;50.35;7.35;;;;;;;13.55;73.35;99242.63;5009534;28;20365;-81
2021/01/28 09:07:04;;;;;;;53.33;9.98;;;;;;;13.12;74.77;99249.44;5011941;28;20033;-80
2021/01/28 09:09:32;;;;;;;53.80;9.02;;;;;;;13.28;73.28;99249.59;5010911;28;20036;-80
2021/01/28 09:12:27;;;;;;;48.92;7.70;;;;;;;13.41;72.96;99236.09;4995313;28;20052;-81
2021/01/28 09:15:10;;;;;;;55.30;8.02;;;;;;;13.42;72.60;99239.53;5009247;28;20420;-81
2021/01/28 09:17:36;;;;;;;55.30;9.77;;;;;;;13.20;73.66;99249.50;5009473;28;20026;-81
2021/01/28 09:20:04;;;;;;;43.38;6.57;;;;;;;13.67;72.25;99253.78;5013135;28;20145;-79
2021/01/28 09:22:35;;;;;;;47.63;7.78;;;;;;;13.82;71.33;99246.97;5013301;28;20026;-79
2021/01/28 09:25:10;;;;;;;46.97;7.07;;;;;;;13.79;71.21;99255.19;5012185;28;20030;-82
2021/01/28 09:27:37;;;;;;;47.92;7.22;;;;;;;13.37;72.60;99257.59;5010916;28;20038;-79
2021/01/28 09:30:29;;;;;;;57.03;6.97;;;;;;;13.26;72.88;99264.72;5003085;28;20038;-80
2021/01/28 09:32:54;;;;;;;45.23;7.80;;;;;;;13.35;72.69;99278.03;5005986;28;20041;-82
2021/01/28 09:35:25;;;;;;;43.10;7.85;;;;;;;13.36;72.95;99267.34;5012147;28;20022;-82
2021/01/28 09:38:11;;;;;;;51.80;8.38;;;;;;;13.38;73.30;99275.91;5013244;28;20022;-82
2021/01/28 09:40:39;;;;;;;58.03;8.27;;;;;;;13.36;73.24;99263.88;5005731;28;20117;-80
2021/01/28 09:43:31;;;;;;;52.45;8.73;;;;;;;13.24;74.06;99263.22;5012255;28;20034;-80
2021/01/28 09:46:24;;;;;;;50.15;8.45;;;;;;;13.37;73.64;99273.41;5008182;28;20794;-79
2021/01/28 09:48:52;;;;;;;52.55;8.77;;;;;;;13.76;72.06;99276.56;5009580;28;20057;-81
2021/01/28 09:51:38;;;;;;;56.88;7.93;;;;;;;13.82;71.87;99281.28;5011251;28;20034;-80
2021/01/28 09:54:16;;;;;;;49.28;7.97;;;;;;;13.58;72.11;99275.78;5011696;28;20038;-82
2021/01/28 09:56:43;;;;;;;45.47;8.52;;;;;;;13.52;72.73;99266.66;5012687;28;20115;-81
2021/01/28 09:59:09;;;;;;;51.20;8.82;;;;;;;13.71;71.60;99278.88;5009484;28;20121;-81
2021/01/28 10:01:35;;;;;;;66.15;8.75;;;;;;;13.57;71.50;99292.59;5009059;28;20456;-81
2021/01/28 10:04:00;;;;;;;49.20;8.75;;;;;;;13.58;72.23;99286.31;5009479;28;20046;-80
2021/01/28 10:06:26;;;;;;;60.92;8.77;;;;;;;13.72;71.99;99285.78;5008625;28;20030;-81
2021/01/28 10:08:51;;;;;;;49.13;7.88;;;;;;;13.58;71.97;99302.16;5010981;28;20026;-81
2021/01/28 10:11:17;;;;;;;61.30;8.93;;;;;;;13.50;72.72;99305.53;5012298;28;20038;-80
2021/01/28 10:13:43;;;;;;;58.35;8.35;;;;;;;13.62;72.16;99308.78;5009248;28;20447;-80
2021/01/28 10:16:09;;;;;;;63.17;10.18;;;;;;;13.18;73.88;99317.38;5032584;22;20044;-78
2021/01/28 10:18:34;;;;;;;65.38;11.23;;;;;;;13.29;73.72;99309.28;5052244;28;20033;-78
2021/01/28 10:21:00;;;;;;;55.05;9.55;;;;;;;13.76;72.77;99315.34;5052137;28;20029;-78
2021/01/28 10:23:26;;;;;;;47.97;9.57;;;;;;;13.63;72.84;99305.19;5052257;28;20475;-78
2021/01/28 10:25:51;;;;;;;66.22;9.82;;;;;;;13.99;71.90;99303.31;5045693;28;20024;-78
2021/01/28 10:28:16;;;;;;;70.57;11.77;;;;;;;14.29;70.86;99291.47;5020815;28;20030;-78
2021/01/28 10:30:42;;;;;;;54.53;8.98;;;;;;;14.93;69.10;99293.00;5012404;28;20029;-78
2021/01/28 10:33:08;;;;;;;73.57;10.35;;;;;;;14.59;69.79;99313.19;5012155;28;20042;-78
2021/01/28 10:35:34;;;;;;;56.38;10.80;;;;;;;14.19;71.02;99319.81;5021822;28;20040;-78
2021/01/28 10:38:00;;;;;;;55.50;9.07;;;;;;;13.99;71.53;99316.53;5021162;28;20472;-78
2021/01/28 10:40:27;;;;;;;55.72;10.65;;;;;;;13.98;70.88;99322.78;5027121;28;20455;-78
2021/01/28 10:42:57;;;;;;;57.17;8.70;;;;;;;14.19;71.42;99327.72;5031846;28;20025;-78
2021/01/28 10:45:26;;;;;;;58.38;8.73;;;;;;;14.11;70.60;99325.03;5031004;28;20026;-78
2021/01/28 10:47:52;;;;;;;49.28;8.85;;;;;;;13.91;71.52;99318.28;5031783;28;20132;-79
2021/01/28 10:50:21;;;;;;;57.15;9.05;;;;;;;14.30;70.08;99334.56;5030243;28;20040;-78
2021/01/28 10:52:46;;;;;;;56.05;8.48;;;;;;;14.15;70.77;99342.22;5031917;28;20051;-78
2021/01/28 10:55:12;;;;;;;57.42;9.93;;;;;;;13.93;71.27;99346.16;5031404;28;20467;-78
2021/01/28 10:57:37;;;;;;;54.47;10.73;;;;;;;14.36;70.28;99354.25;5031709;28;20116;-79
2021/01/28 11:00:05;;;;;;;45.17;7.28;;;;;;;14.54;69.54;99365.59;5031891;28;20025;-79
2021/01/28 11:02:31;;;;;;;43.28;8.57;;;;;;;14.25;69.06;99361.44;5028990;28;20065;-79
2021/01/28 11:04:56;;;;;;;52.20;8.63;;;;;;;13.81;71.58;99361.38;5012836;28;20097;-79
2021/01/28 11:07:21;;;;;;;48.30;9.38;;;;;;;13.79;72.28;99365.16;5031503;28;20080;-78
2021/01/28 11:09:47;;;;;;;54.15;9.23;;;;;;;13.99;71.09;99381.69;5024047;28;20091;-79
2021/01/28 11:12:12;;;;;;;50.53;7.90;;;;;;;14.22;69.50;99393.44;5028838;28;20022;-81
2021/01/28 11:14:37;;;;;;;45.13;7.88;;;;;;;14.07;70.51;99385.22;5023738;28;20064;-78
2021/01/28 11:17:03;;;;;;;42.92;7.53;;;;;;;14.12;69.60;99400.59;5028411;28;20709;-78
2021/01/28 11:19:29;;;;;;;48.58;8.77;;;;;;;13.73;71.67;99387.69;5014626;28;20041;-78
2021/01/28 11:21:54;;;;;;;56.45;9.95;;;;;;;13.96;71.03;99374.91;5011595;28;20071;-78
2021/01/28 11:24:19;;;;;;;52.83;7.82;;;;;;;14.11;70.52;99396.28;5011488;28;20026;-78
2021/01/28 11:26:45;;;;;;;48.17;8.48;;;;;;;13.76;72.34;99379.47;5011227;28;20076;-79
2021/01/28 11:29:10;;;;;;;51.42;8.32;;;;;;;14.29;70.52;99381.25;5011455;28;20021;-78
2021/01/28 11:31:36;;;;;;;56.65;8.48;;;;;;;14.26;70.61;99371.03;5027842;28;20038;-78
2021/01/28 11:34:02;;;;;;;44.75;7.82;;;;;;;14.46;70.32;99389.31;5028237;28;20034;-78
2021/01/28 11:36:28;;;;;;;46.42;8.30;;;;;;;13.99;70.77;99365.84;5021120;28;20028;-78
2021/01/28 11:38:54;;;;;;;48.30;7.88;;;;;;;14.53;69.74;99369.22;5029484;28;20026;-78
2021/01/28 11:41:19;;;;;;;51.28;9.25;;;;;;;14.36;70.52;99365.66;5031226;28;20028;-78
2021/01/28 11:43:45;;;;;;;55.88;9.20;;;;;;;14.56;70.11;99354.88;5024089;28;20539;-79
2021/01/28 11:46:10;;;;;;;59.65;7.95;;;;;;;14.18;71.35;99368.31;5025819;28;20032;-79